sensor_id;sensor_type;location;lat;lon;timestamp;temperature;humidity
59469;DHT22;45277;52.768;18.262;2022-11-15T00:00:30;5.40;99.90
59469;DHT22;45277;52.768;18.262;2022-11-15T00:02:09;5.40;99.90
59469;DHT22;45277;52.768;18.262;2022-11-15T00:03:41;5.40;99.90
59469;DHT22;45277;52.768;18.262;2022-11-15T00:05:12;5.30;99.90
59469;DHT22;45277;52.768;18.262;2022-11-15T00:06:43;5.30;99.90
59469;DHT22;45277;52.768;18.262;2022-11-15T00:08:15;5.40;99.90
59469;DHT22;45277;52.768;18.262;2022-11-15T00:09:46;5.40;99.90
59469;DHT22;45277;52.768;18.262;2022-11-15T00:11:18;5.40;99.90
59469;DHT22;45277;52.768;18.262;2022-11-15T00:12:49;5.40;99.90
59469;DHT22;45277;52.768;18.262;2022-11-15T00:14:21;5.40;99.90
59469;DHT22;45277;52.768;18.262;2022-11-15T00:15:52;5.40;99.90
59469;DHT22;45277;52.768;18.262;2022-11-15T00:17:27;5.40;99.90
59469;DHT22;45277;52.768;18.262;2022-11-15T00:18:59;5.40;99.90
59469;DHT22;45277;52.768;18.262;2022-11-15T00:20:30;5.40;99.90
59469;DHT22;45277;52.768;18.262;2022-11-15T00:22:02;5.40;99.90
59469;DHT22;45277;52.768;18.262;2022-11-15T00:23:34;5.40;99.90
59469;DHT22;45277;52.768;18.262;2022-11-15T00:25:05;5.40;99.90
59469;DHT22;45277;52.768;18.262;2022-11-15T00:26:37;5.40;99.90
59469;DHT22;45277;52.768;18.262;2022-11-15T00:28:08;5.40;99.90
59469;DHT22;45277;52.768;18.262;2022-11-15T00:31:48;5.40;99.90
59469;DHT22;45277;52.768;18.262;2022-11-15T00:33:20;5.40;99.90
59469;DHT22;45277;52.768;18.262;2022-11-15T00:34:52;5.50;99.90
59469;DHT22;45277;52.768;18.262;2022-11-15T00:36:23;5.50;99.90
59469;DHT22;45277;52.768;18.262;2022-11-15T00:37:54;5.50;99.90
59469;DHT22;45277;52.768;18.262;2022-11-15T00:39:26;5.40;99.90
59469;DHT22;45277;52.768;18.262;2022-11-15T00:40:57;5.50;99.90
59469;DHT22;45277;52.768;18.262;2022-11-15T00:42:29;5.50;99.90
59469;DHT22;45277;52.768;18.262;2022-11-15T00:44:00;5.50;99.90
59469;DHT22;45277;52.768;18.262;2022-11-15T00:45:31;5.50;99.90
59469;DHT22;45277;52.768;18.262;2022-11-15T00:47:03;5.50;99.90
59469;DHT22;45277;52.768;18.262;2022-11-15T00:48:34;5.60;99.90
59469;DHT22;45277;52.768;18.262;2022-11-15T00:50:07;5.50;99.90
59469;DHT22;45277;52.768;18.262;2022-11-15T00:51:38;5.50;99.90
59469;DHT22;45277;52.768;18.262;2022-11-15T00:53:10;5.40;99.90
59469;DHT22;45277;52.768;18.262;2022-11-15T00:54:41;5.40;99.90
59469;DHT22;45277;52.768;18.262;2022-11-15T00:56:12;5.40;99.90
59469;DHT22;45277;52.768;18.262;2022-11-15T00:57:44;5.40;99.90
59469;DHT22;45277;52.768;18.262;2022-11-15T00:59:16;5.40;99.90
59469;DHT22;45277;52.768;18.262;2022-11-15T01:00:48;5.40;99.90
59469;DHT22;45277;52.768;18.262;2022-11-15T01:02:19;5.40;99.90
59469;DHT22;45277;52.768;18.262;2022-11-15T01:03:50;5.40;99.90
59469;DHT22;45277;52.768;18.262;2022-11-15T01:05:22;5.40;99.90
59469;DHT22;45277;52.768;18.262;2022-11-15T01:06:53;5.40;99.90
59469;DHT22;45277;52.768;18.262;2022-11-15T01:08:25;5.50;99.90
59469;DHT22;45277;52.768;18.262;2022-11-15T01:09:56;5.50;99.90
59469;DHT22;45277;52.768;18.262;2022-11-15T01:11:28;5.50;99.90
59469;DHT22;45277;52.768;18.262;2022-11-15T01:12:59;5.60;99.90
59469;DHT22;45277;52.768;18.262;2022-11-15T01:14:30;5.60;99.90
59469;DHT22;45277;52.768;18.262;2022-11-15T01:16:13;5.60;99.90
59469;DHT22;45277;52.768;18.262;2022-11-15T01:17:44;5.50;99.90
59469;DHT22;45277;52.768;18.262;2022-11-15T01:19:16;5.50;99.90
59469;DHT22;45277;52.768;18.262;2022-11-15T01:20:47;5.60;99.90
59469;DHT22;45277;52.768;18.262;2022-11-15T01:22:19;5.60;99.90
59469;DHT22;45277;52.768;18.262;2022-11-15T01:23:55;5.60;99.90
59469;DHT22;45277;52.768;18.262;2022-11-15T01:25:27;5.60;99.90
59469;DHT22;45277;52.768;18.262;2022-11-15T01:26:59;5.70;99.90
59469;DHT22;45277;52.768;18.262;2022-11-15T01:28:34;5.60;99.90
59469;DHT22;45277;52.768;18.262;2022-11-15T01:30:07;5.60;99.90
59469;DHT22;45277;52.768;18.262;2022-11-15T01:31:39;5.60;99.90
59469;DHT22;45277;52.768;18.262;2022-11-15T01:33:10;5.60;99.90
59469;DHT22;45277;52.768;18.262;2022-11-15T01:34:42;5.60;99.90
59469;DHT22;45277;52.768;18.262;2022-11-15T01:36:17;5.70;99.90
59469;DHT22;45277;52.768;18.262;2022-11-15T01:37:49;5.70;99.90
59469;DHT22;45277;52.768;18.262;2022-11-15T01:39:21;5.70;99.90
59469;DHT22;45277;52.768;18.262;2022-11-15T01:40:52;5.70;99.90
59469;DHT22;45277;52.768;18.262;2022-11-15T01:42:23;5.70;99.90
59469;DHT22;45277;52.768;18.262;2022-11-15T01:45:51;5.70;99.90
59469;DHT22;45277;52.768;18.262;2022-11-15T01:47:37;5.70;99.90
59469;DHT22;45277;52.768;18.262;2022-11-15T01:49:19;5.70;99.90
59469;DHT22;45277;52.768;18.262;2022-11-15T01:50:51;5.70;99.90
59469;DHT22;45277;52.768;18.262;2022-11-15T01:52:25;5.70;99.90
59469;DHT22;45277;52.768;18.262;2022-11-15T01:54:02;5.70;99.90
59469;DHT22;45277;52.768;18.262;2022-11-15T01:55:35;5.70;99.90
59469;DHT22;45277;52.768;18.262;2022-11-15T01:57:11;5.70;99.90
59469;DHT22;45277;52.768;18.262;2022-11-15T01:58:44;5.60;99.90
59469;DHT22;45277;52.768;18.262;2022-11-15T02:02:50;5.70;99.90
59469;DHT22;45277;52.768;18.262;2022-11-15T02:04:28;5.70;99.90
59469;DHT22;45277;52.768;18.262;2022-11-15T02:06:00;5.60;99.90
59469;DHT22;45277;52.768;18.262;2022-11-15T02:07:34;5.70;99.90
59469;DHT22;45277;52.768;18.262;2022-11-15T02:09:06;5.60;99.90
59469;DHT22;45277;52.768;18.262;2022-11-15T02:10:38;5.70;99.90
59469;DHT22;45277;52.768;18.262;2022-11-15T02:12:10;5.60;99.90
59469;DHT22;45277;52.768;18.262;2022-11-15T02:13:43;5.60;99.90
59469;DHT22;45277;52.768;18.262;2022-11-15T02:15:29;5.60;99.90
59469;DHT22;45277;52.768;18.262;2022-11-15T02:17:31;5.70;99.90
59469;DHT22;45277;52.768;18.262;2022-11-15T02:25:59;5.60;99.90
59469;DHT22;45277;52.768;18.262;2022-11-15T02:28:12;5.60;99.90
59469;DHT22;45277;52.768;18.262;2022-11-15T02:35:57;5.60;99.90
59469;DHT22;45277;52.768;18.262;2022-11-15T02:37:51;5.60;99.90
59469;DHT22;45277;52.768;18.262;2022-11-15T02:39:49;5.60;99.90
59469;DHT22;45277;52.768;18.262;2022-11-15T02:41:31;5.60;99.90
59469;DHT22;45277;52.768;18.262;2022-11-15T02:43:11;5.60;99.90
59469;DHT22;45277;52.768;18.262;2022-11-15T02:45:05;5.60;99.90
59469;DHT22;45277;52.768;18.262;2022-11-15T02:46:49;5.50;99.90
59469;DHT22;45277;52.768;18.262;2022-11-15T02:48:41;5.50;99.90
59469;DHT22;45277;52.768;18.262;2022-11-15T02:50:18;5.60;99.90
59469;DHT22;45277;52.768;18.262;2022-11-15T02:51:51;5.50;99.90
59469;DHT22;45277;52.768;18.262;2022-11-15T02:53:26;5.60;99.90
59469;DHT22;45277;52.768;18.262;2022-11-15T02:55:00;5.50;99.90
59469;DHT22;45277;52.768;18.262;2022-11-15T02:56:32;5.50;99.90
59469;DHT22;45277;52.768;18.262;2022-11-15T02:58:32;5.50;99.90
59469;DHT22;45277;52.768;18.262;2022-11-15T03:00:12;5.50;99.90
59469;DHT22;45277;52.768;18.262;2022-11-15T03:04:06;5.50;99.90
59469;DHT22;45277;52.768;18.262;2022-11-15T03:08:00;5.50;99.90
59469;DHT22;45277;52.768;18.262;2022-11-15T03:11:15;5.50;99.90
59469;DHT22;45277;52.768;18.262;2022-11-15T03:16:55;5.50;99.90
59469;DHT22;45277;52.768;18.262;2022-11-15T03:18:32;5.50;99.90
59469;DHT22;45277;52.768;18.262;2022-11-15T03:20:06;5.60;99.90
59469;DHT22;45277;52.768;18.262;2022-11-15T03:21:40;5.50;99.90
59469;DHT22;45277;52.768;18.262;2022-11-15T03:23:12;5.50;99.90
59469;DHT22;45277;52.768;18.262;2022-11-15T03:24:46;5.50;99.90
59469;DHT22;45277;52.768;18.262;2022-11-15T03:26:20;5.50;99.90
59469;DHT22;45277;52.768;18.262;2022-11-15T03:27:55;5.50;99.90
59469;DHT22;45277;52.768;18.262;2022-11-15T03:29:36;5.60;99.90
59469;DHT22;45277;52.768;18.262;2022-11-15T03:31:11;5.50;99.90
59469;DHT22;45277;52.768;18.262;2022-11-15T03:33:04;5.60;99.90
59469;DHT22;45277;52.768;18.262;2022-11-15T03:34:49;5.60;99.90
59469;DHT22;45277;52.768;18.262;2022-11-15T03:36:23;5.60;99.90
59469;DHT22;45277;52.768;18.262;2022-11-15T03:38:19;5.60;99.90
59469;DHT22;45277;52.768;18.262;2022-11-15T03:39:52;5.60;99.90
59469;DHT22;45277;52.768;18.262;2022-11-15T03:41:30;5.60;99.90
59469;DHT22;45277;52.768;18.262;2022-11-15T03:44:51;5.60;99.90
59469;DHT22;45277;52.768;18.262;2022-11-15T03:46:27;5.60;99.90
59469;DHT22;45277;52.768;18.262;2022-11-15T03:48:07;5.60;99.90
59469;DHT22;45277;52.768;18.262;2022-11-15T03:49:46;5.60;99.90
59469;DHT22;45277;52.768;18.262;2022-11-15T03:51:18;5.60;99.90
59469;DHT22;45277;52.768;18.262;2022-11-15T03:52:50;5.60;99.90
59469;DHT22;45277;52.768;18.262;2022-11-15T03:54:21;5.60;99.90
59469;DHT22;45277;52.768;18.262;2022-11-15T03:55:52;5.60;99.90
59469;DHT22;45277;52.768;18.262;2022-11-15T03:57:24;5.60;99.90
59469;DHT22;45277;52.768;18.262;2022-11-15T03:58:55;5.60;99.90
59469;DHT22;45277;52.768;18.262;2022-11-15T04:00:28;5.60;99.90
59469;DHT22;45277;52.768;18.262;2022-11-15T04:01:59;5.70;99.90
59469;DHT22;45277;52.768;18.262;2022-11-15T04:03:31;5.60;99.90
59469;DHT22;45277;52.768;18.262;2022-11-15T04:05:03;5.70;99.90
59469;DHT22;45277;52.768;18.262;2022-11-15T04:06:34;5.60;99.90
59469;DHT22;45277;52.768;18.262;2022-11-15T04:08:06;5.60;99.90
59469;DHT22;45277;52.768;18.262;2022-11-15T04:09:38;5.60;99.90
59469;DHT22;45277;52.768;18.262;2022-11-15T04:11:30;5.60;99.90
59469;DHT22;45277;52.768;18.262;2022-11-15T04:13:04;5.60;99.90
59469;DHT22;45277;52.768;18.262;2022-11-15T04:14:36;5.60;99.90
59469;DHT22;45277;52.768;18.262;2022-11-15T04:16:07;5.50;99.90
59469;DHT22;45277;52.768;18.262;2022-11-15T04:19:14;5.60;99.90
59469;DHT22;45277;52.768;18.262;2022-11-15T04:21:04;5.60;99.90
59469;DHT22;45277;52.768;18.262;2022-11-15T04:22:55;5.60;99.90
59469;DHT22;45277;52.768;18.262;2022-11-15T04:24:46;5.60;99.90
59469;DHT22;45277;52.768;18.262;2022-11-15T04:26:20;5.60;99.90
59469;DHT22;45277;52.768;18.262;2022-11-15T04:27:51;5.60;99.90
59469;DHT22;45277;52.768;18.262;2022-11-15T04:29:23;5.60;99.90
59469;DHT22;45277;52.768;18.262;2022-11-15T04:31:06;5.60;99.90
59469;DHT22;45277;52.768;18.262;2022-11-15T04:32:38;5.60;99.90
59469;DHT22;45277;52.768;18.262;2022-11-15T04:34:09;5.60;99.90
59469;DHT22;45277;52.768;18.262;2022-11-15T04:35:42;5.70;99.90
59469;DHT22;45277;52.768;18.262;2022-11-15T04:37:13;5.60;99.90
59469;DHT22;45277;52.768;18.262;2022-11-15T04:38:46;5.60;99.90
59469;DHT22;45277;52.768;18.262;2022-11-15T04:40:17;5.70;99.90
59469;DHT22;45277;52.768;18.262;2022-11-15T04:41:49;5.70;99.90
59469;DHT22;45277;52.768;18.262;2022-11-15T04:43:20;5.70;99.90
59469;DHT22;45277;52.768;18.262;2022-11-15T04:44:51;5.70;99.90
59469;DHT22;45277;52.768;18.262;2022-11-15T04:46:24;5.70;99.90
59469;DHT22;45277;52.768;18.262;2022-11-15T04:47:55;5.70;99.90
59469;DHT22;45277;52.768;18.262;2022-11-15T04:49:26;5.70;99.90
59469;DHT22;45277;52.768;18.262;2022-11-15T04:50:58;5.60;99.90
59469;DHT22;45277;52.768;18.262;2022-11-15T04:52:29;5.60;99.90
59469;DHT22;45277;52.768;18.262;2022-11-15T04:54:01;5.70;99.90
59469;DHT22;45277;52.768;18.262;2022-11-15T04:55:32;5.60;99.90
59469;DHT22;45277;52.768;18.262;2022-11-15T04:57:03;5.60;99.90
59469;DHT22;45277;52.768;18.262;2022-11-15T04:58:35;5.70;99.90
59469;DHT22;45277;52.768;18.262;2022-11-15T05:00:13;5.60;99.90
59469;DHT22;45277;52.768;18.262;2022-11-15T05:01:45;5.60;99.90
59469;DHT22;45277;52.768;18.262;2022-11-15T05:03:16;5.70;99.90
59469;DHT22;45277;52.768;18.262;2022-11-15T05:05:06;5.70;99.90
59469;DHT22;45277;52.768;18.262;2022-11-15T05:06:38;5.60;99.90
59469;DHT22;45277;52.768;18.262;2022-11-15T05:08:09;5.60;99.90
59469;DHT22;45277;52.768;18.262;2022-11-15T05:09:41;5.60;99.90
59469;DHT22;45277;52.768;18.262;2022-11-15T05:11:12;5.60;99.90
59469;DHT22;45277;52.768;18.262;2022-11-15T05:12:43;5.60;99.90
59469;DHT22;45277;52.768;18.262;2022-11-15T05:14:15;5.70;99.90
59469;DHT22;45277;52.768;18.262;2022-11-15T05:15:47;5.70;99.90
59469;DHT22;45277;52.768;18.262;2022-11-15T05:17:18;5.60;99.90
59469;DHT22;45277;52.768;18.262;2022-11-15T05:18:53;5.60;99.90
59469;DHT22;45277;52.768;18.262;2022-11-15T05:20:25;5.60;99.90
59469;DHT22;45277;52.768;18.262;2022-11-15T05:21:56;5.60;99.90
59469;DHT22;45277;52.768;18.262;2022-11-15T05:23:27;5.60;99.90
59469;DHT22;45277;52.768;18.262;2022-11-15T05:24:58;5.60;99.90
59469;DHT22;45277;52.768;18.262;2022-11-15T05:26:30;5.50;99.90
59469;DHT22;45277;52.768;18.262;2022-11-15T05:28:02;5.50;99.90
59469;DHT22;45277;52.768;18.262;2022-11-15T05:29:33;5.60;99.90
59469;DHT22;45277;52.768;18.262;2022-11-15T05:31:11;5.60;99.90
59469;DHT22;45277;52.768;18.262;2022-11-15T05:32:43;5.60;99.90
59469;DHT22;45277;52.768;18.262;2022-11-15T05:34:15;5.60;99.90
59469;DHT22;45277;52.768;18.262;2022-11-15T05:35:50;5.60;99.90
59469;DHT22;45277;52.768;18.262;2022-11-15T05:37:25;5.60;99.90
59469;DHT22;45277;52.768;18.262;2022-11-15T05:38:56;5.50;99.90
59469;DHT22;45277;52.768;18.262;2022-11-15T05:40:29;5.60;99.90
59469;DHT22;45277;52.768;18.262;2022-11-15T05:42:13;5.60;99.90
59469;DHT22;45277;52.768;18.262;2022-11-15T05:43:45;5.60;99.90
59469;DHT22;45277;52.768;18.262;2022-11-15T05:45:17;5.60;99.90
59469;DHT22;45277;52.768;18.262;2022-11-15T05:46:50;5.60;99.90
59469;DHT22;45277;52.768;18.262;2022-11-15T05:48:24;5.60;99.90
59469;DHT22;45277;52.768;18.262;2022-11-15T05:49:56;5.60;99.90
59469;DHT22;45277;52.768;18.262;2022-11-15T05:51:29;5.60;99.90
59469;DHT22;45277;52.768;18.262;2022-11-15T05:53:01;5.60;99.90
59469;DHT22;45277;52.768;18.262;2022-11-15T05:54:33;5.60;99.90
59469;DHT22;45277;52.768;18.262;2022-11-15T05:56:05;5.60;99.90
59469;DHT22;45277;52.768;18.262;2022-11-15T05:57:37;5.60;99.90
59469;DHT22;45277;52.768;18.262;2022-11-15T05:59:09;5.60;99.90
59469;DHT22;45277;52.768;18.262;2022-11-15T06:00:41;5.60;99.90
59469;DHT22;45277;52.768;18.262;2022-11-15T06:02:14;5.50;99.90
59469;DHT22;45277;52.768;18.262;2022-11-15T06:03:45;5.50;99.90
59469;DHT22;45277;52.768;18.262;2022-11-15T06:05:16;5.50;99.90
59469;DHT22;45277;52.768;18.262;2022-11-15T06:06:48;5.50;99.90
59469;DHT22;45277;52.768;18.262;2022-11-15T06:08:19;5.50;99.90
59469;DHT22;45277;52.768;18.262;2022-11-15T06:09:51;5.50;99.90
59469;DHT22;45277;52.768;18.262;2022-11-15T06:11:22;5.50;99.90
59469;DHT22;45277;52.768;18.262;2022-11-15T06:13:01;5.50;99.90
59469;DHT22;45277;52.768;18.262;2022-11-15T06:14:33;5.50;99.90
59469;DHT22;45277;52.768;18.262;2022-11-15T06:16:05;5.50;99.90
59469;DHT22;45277;52.768;18.262;2022-11-15T06:17:36;5.50;99.90
59469;DHT22;45277;52.768;18.262;2022-11-15T06:19:07;5.50;99.90
59469;DHT22;45277;52.768;18.262;2022-11-15T06:20:39;5.50;99.90
59469;DHT22;45277;52.768;18.262;2022-11-15T06:22:10;5.50;99.90
59469;DHT22;45277;52.768;18.262;2022-11-15T06:23:42;5.50;99.90
59469;DHT22;45277;52.768;18.262;2022-11-15T06:25:14;5.50;99.90
59469;DHT22;45277;52.768;18.262;2022-11-15T06:26:45;5.50;99.90
59469;DHT22;45277;52.768;18.262;2022-11-15T06:28:17;5.50;99.90
59469;DHT22;45277;52.768;18.262;2022-11-15T06:29:48;5.50;99.90
59469;DHT22;45277;52.768;18.262;2022-11-15T06:31:20;5.50;99.90
59469;DHT22;45277;52.768;18.262;2022-11-15T06:32:51;5.60;99.90
59469;DHT22;45277;52.768;18.262;2022-11-15T06:34:23;5.50;99.90
59469;DHT22;45277;52.768;18.262;2022-11-15T06:35:54;5.60;99.90
59469;DHT22;45277;52.768;18.262;2022-11-15T06:37:26;5.50;99.90
59469;DHT22;45277;52.768;18.262;2022-11-15T06:38:57;5.50;99.90
59469;DHT22;45277;52.768;18.262;2022-11-15T06:40:29;5.60;99.90
59469;DHT22;45277;52.768;18.262;2022-11-15T06:42:00;5.60;99.90
59469;DHT22;45277;52.768;18.262;2022-11-15T06:43:32;5.70;99.90
59469;DHT22;45277;52.768;18.262;2022-11-15T06:45:04;5.60;99.90
59469;DHT22;45277;52.768;18.262;2022-11-15T06:46:36;5.60;99.90
59469;DHT22;45277;52.768;18.262;2022-11-15T06:48:08;5.60;99.90
59469;DHT22;45277;52.768;18.262;2022-11-15T06:49:39;5.60;99.90
59469;DHT22;45277;52.768;18.262;2022-11-15T06:51:10;5.60;99.90
59469;DHT22;45277;52.768;18.262;2022-11-15T06:52:42;5.60;99.90
59469;DHT22;45277;52.768;18.262;2022-11-15T06:54:13;5.60;99.90
59469;DHT22;45277;52.768;18.262;2022-11-15T06:55:44;5.60;99.90
59469;DHT22;45277;52.768;18.262;2022-11-15T06:57:16;5.50;99.90
59469;DHT22;45277;52.768;18.262;2022-11-15T06:58:47;5.60;99.90
59469;DHT22;45277;52.768;18.262;2022-11-15T07:00:20;5.60;99.90
59469;DHT22;45277;52.768;18.262;2022-11-15T07:01:52;5.50;99.90
59469;DHT22;45277;52.768;18.262;2022-11-15T07:03:23;5.50;99.90
59469;DHT22;45277;52.768;18.262;2022-11-15T07:04:55;5.60;99.90
59469;DHT22;45277;52.768;18.262;2022-11-15T07:06:26;5.60;99.90
59469;DHT22;45277;52.768;18.262;2022-11-15T07:07:58;5.60;99.90
59469;DHT22;45277;52.768;18.262;2022-11-15T07:09:30;5.60;99.90
59469;DHT22;45277;52.768;18.262;2022-11-15T07:11:03;5.60;99.90
59469;DHT22;45277;52.768;18.262;2022-11-15T07:12:35;5.70;99.90
59469;DHT22;45277;52.768;18.262;2022-11-15T07:14:06;5.70;99.90
59469;DHT22;45277;52.768;18.262;2022-11-15T07:15:37;5.70;99.90
59469;DHT22;45277;52.768;18.262;2022-11-15T07:17:09;5.60;99.90
59469;DHT22;45277;52.768;18.262;2022-11-15T07:18:40;5.70;99.90
59469;DHT22;45277;52.768;18.262;2022-11-15T07:20:13;5.60;99.90
59469;DHT22;45277;52.768;18.262;2022-11-15T07:21:44;5.60;99.90
59469;DHT22;45277;52.768;18.262;2022-11-15T07:23:16;5.60;99.90
59469;DHT22;45277;52.768;18.262;2022-11-15T07:24:47;5.60;99.90
59469;DHT22;45277;52.768;18.262;2022-11-15T07:26:18;5.60;99.90
59469;DHT22;45277;52.768;18.262;2022-11-15T07:27:59;5.60;99.90
59469;DHT22;45277;52.768;18.262;2022-11-15T07:29:30;5.60;99.90
59469;DHT22;45277;52.768;18.262;2022-11-15T07:31:07;5.60;99.90
59469;DHT22;45277;52.768;18.262;2022-11-15T07:32:39;5.60;99.90
59469;DHT22;45277;52.768;18.262;2022-11-15T07:34:10;5.60;99.90
59469;DHT22;45277;52.768;18.262;2022-11-15T07:35:41;5.60;99.90
59469;DHT22;45277;52.768;18.262;2022-11-15T07:37:14;5.50;99.90
59469;DHT22;45277;52.768;18.262;2022-11-15T07:38:45;5.60;99.90
59469;DHT22;45277;52.768;18.262;2022-11-15T07:40:16;5.60;99.90
59469;DHT22;45277;52.768;18.262;2022-11-15T07:41:48;5.60;99.90
59469;DHT22;45277;52.768;18.262;2022-11-15T07:43:20;5.60;99.90
59469;DHT22;45277;52.768;18.262;2022-11-15T07:44:51;5.60;99.90
59469;DHT22;45277;52.768;18.262;2022-11-15T07:46:23;5.70;99.90
59469;DHT22;45277;52.768;18.262;2022-11-15T07:47:55;5.70;99.90
59469;DHT22;45277;52.768;18.262;2022-11-15T07:49:26;5.70;99.90
59469;DHT22;45277;52.768;18.262;2022-11-15T07:50:58;5.70;99.90
59469;DHT22;45277;52.768;18.262;2022-11-15T07:52:29;5.80;99.90
59469;DHT22;45277;52.768;18.262;2022-11-15T07:54:01;5.80;99.90
59469;DHT22;45277;52.768;18.262;2022-11-15T07:55:32;5.80;99.90
59469;DHT22;45277;52.768;18.262;2022-11-15T07:57:04;5.80;99.90
59469;DHT22;45277;52.768;18.262;2022-11-15T07:58:36;5.80;99.90
59469;DHT22;45277;52.768;18.262;2022-11-15T08:00:10;5.80;99.90
59469;DHT22;45277;52.768;18.262;2022-11-15T08:01:41;5.90;99.90
59469;DHT22;45277;52.768;18.262;2022-11-15T08:03:15;5.80;99.90
59469;DHT22;45277;52.768;18.262;2022-11-15T08:04:47;5.80;99.90
59469;DHT22;45277;52.768;18.262;2022-11-15T08:06:19;5.80;99.90
59469;DHT22;45277;52.768;18.262;2022-11-15T08:07:50;5.80;99.90
59469;DHT22;45277;52.768;18.262;2022-11-15T08:09:21;5.80;99.90
59469;DHT22;45277;52.768;18.262;2022-11-15T08:10:53;5.90;99.90
59469;DHT22;45277;52.768;18.262;2022-11-15T08:12:25;5.90;99.90
59469;DHT22;45277;52.768;18.262;2022-11-15T08:13:56;6.00;99.90
59469;DHT22;45277;52.768;18.262;2022-11-15T08:15:28;6.00;99.90
59469;DHT22;45277;52.768;18.262;2022-11-15T08:16:59;6.00;99.90
59469;DHT22;45277;52.768;18.262;2022-11-15T08:18:31;5.90;99.90
59469;DHT22;45277;52.768;18.262;2022-11-15T08:20:03;6.00;99.90
59469;DHT22;45277;52.768;18.262;2022-11-15T08:21:34;6.00;99.90
59469;DHT22;45277;52.768;18.262;2022-11-15T08:23:07;5.90;99.90
59469;DHT22;45277;52.768;18.262;2022-11-15T08:24:39;5.90;99.90
59469;DHT22;45277;52.768;18.262;2022-11-15T08:26:10;5.90;99.90
59469;DHT22;45277;52.768;18.262;2022-11-15T08:27:41;6.00;99.90
59469;DHT22;45277;52.768;18.262;2022-11-15T08:29:13;6.10;99.90
59469;DHT22;45277;52.768;18.262;2022-11-15T08:30:44;6.00;99.90
59469;DHT22;45277;52.768;18.262;2022-11-15T08:32:16;6.00;99.90
59469;DHT22;45277;52.768;18.262;2022-11-15T08:33:49;6.00;99.90
59469;DHT22;45277;52.768;18.262;2022-11-15T08:35:20;6.10;99.90
59469;DHT22;45277;52.768;18.262;2022-11-15T08:36:52;6.20;99.90
59469;DHT22;45277;52.768;18.262;2022-11-15T08:38:24;6.20;99.90
59469;DHT22;45277;52.768;18.262;2022-11-15T08:39:55;6.20;99.90
59469;DHT22;45277;52.768;18.262;2022-11-15T08:41:44;6.20;99.90
59469;DHT22;45277;52.768;18.262;2022-11-15T08:43:16;6.10;99.90
59469;DHT22;45277;52.768;18.262;2022-11-15T08:44:47;6.20;99.90
59469;DHT22;45277;52.768;18.262;2022-11-15T08:46:18;6.20;99.90
59469;DHT22;45277;52.768;18.262;2022-11-15T08:47:50;6.30;99.90
59469;DHT22;45277;52.768;18.262;2022-11-15T08:49:21;6.30;99.90
59469;DHT22;45277;52.768;18.262;2022-11-15T08:50:57;6.30;99.90
59469;DHT22;45277;52.768;18.262;2022-11-15T08:52:29;6.40;99.90
59469;DHT22;45277;52.768;18.262;2022-11-15T08:54:00;6.40;99.90
59469;DHT22;45277;52.768;18.262;2022-11-15T08:55:31;6.40;99.90
59469;DHT22;45277;52.768;18.262;2022-11-15T08:57:03;6.40;99.90
59469;DHT22;45277;52.768;18.262;2022-11-15T08:58:35;6.50;99.90
59469;DHT22;45277;52.768;18.262;2022-11-15T09:00:06;6.40;99.90
59469;DHT22;45277;52.768;18.262;2022-11-15T09:01:38;6.50;99.90
59469;DHT22;45277;52.768;18.262;2022-11-15T09:03:09;6.60;99.90
59469;DHT22;45277;52.768;18.262;2022-11-15T09:04:41;6.60;99.90
59469;DHT22;45277;52.768;18.262;2022-11-15T09:06:14;6.70;99.90
59469;DHT22;45277;52.768;18.262;2022-11-15T09:07:45;6.60;99.90
59469;DHT22;45277;52.768;18.262;2022-11-15T09:09:17;6.70;99.90
59469;DHT22;45277;52.768;18.262;2022-11-15T09:10:48;6.70;99.90
59469;DHT22;45277;52.768;18.262;2022-11-15T09:12:19;6.80;99.90
59469;DHT22;45277;52.768;18.262;2022-11-15T09:13:51;6.80;99.90
59469;DHT22;45277;52.768;18.262;2022-11-15T09:15:23;6.90;99.90
59469;DHT22;45277;52.768;18.262;2022-11-15T09:16:54;6.90;99.90
59469;DHT22;45277;52.768;18.262;2022-11-15T09:18:27;6.90;99.90
59469;DHT22;45277;52.768;18.262;2022-11-15T09:19:58;6.80;99.90
59469;DHT22;45277;52.768;18.262;2022-11-15T09:21:30;6.80;99.90
59469;DHT22;45277;52.768;18.262;2022-11-15T09:23:03;6.80;99.90
59469;DHT22;45277;52.768;18.262;2022-11-15T09:24:35;6.80;99.90
59469;DHT22;45277;52.768;18.262;2022-11-15T09:26:06;6.80;99.90
59469;DHT22;45277;52.768;18.262;2022-11-15T09:27:38;6.70;99.90
59469;DHT22;45277;52.768;18.262;2022-11-15T09:29:09;6.60;99.90
59469;DHT22;45277;52.768;18.262;2022-11-15T09:30:41;6.60;99.90
59469;DHT22;45277;52.768;18.262;2022-11-15T09:32:12;6.50;99.90
59469;DHT22;45277;52.768;18.262;2022-11-15T09:33:44;6.50;99.90
59469;DHT22;45277;52.768;18.262;2022-11-15T09:35:16;6.60;99.90
59469;DHT22;45277;52.768;18.262;2022-11-15T09:36:47;6.60;99.90
59469;DHT22;45277;52.768;18.262;2022-11-15T09:38:19;6.70;99.90
59469;DHT22;45277;52.768;18.262;2022-11-15T09:39:51;6.70;99.90
59469;DHT22;45277;52.768;18.262;2022-11-15T09:41:38;6.80;99.90
59469;DHT22;45277;52.768;18.262;2022-11-15T09:43:32;6.80;
59469;DHT22;45277;52.768;18.262;2022-11-15T09:45:31;6.80;99.90
59469;DHT22;45277;52.768;18.262;2022-11-15T09:50:32;6.90;99.90
59469;DHT22;45277;52.768;18.262;2022-11-15T09:52:07;6.90;99.90
59469;DHT22;45277;52.768;18.262;2022-11-15T09:53:49;6.90;99.90
59469;DHT22;45277;52.768;18.262;2022-11-15T09:55:32;6.90;99.90
59469;DHT22;45277;52.768;18.262;2022-11-15T09:57:09;7.00;99.90
59469;DHT22;45277;52.768;18.262;2022-11-15T10:00:31;6.90;99.90
59469;DHT22;45277;52.768;18.262;2022-11-15T10:04:00;6.80;99.90
59469;DHT22;45277;52.768;18.262;2022-11-15T10:05:38;6.90;99.90
59469;DHT22;45277;52.768;18.262;2022-11-15T10:07:43;6.90;99.90
59469;DHT22;45277;52.768;18.262;2022-11-15T10:09:22;6.90;99.90
59469;DHT22;45277;52.768;18.262;2022-11-15T10:11:01;6.90;99.90
59469;DHT22;45277;52.768;18.262;2022-11-15T10:12:33;6.80;99.90
59469;DHT22;45277;52.768;18.262;2022-11-15T10:14:25;6.90;99.90
59469;DHT22;45277;52.768;18.262;2022-11-15T10:18:08;7.00;99.90
59469;DHT22;45277;52.768;18.262;2022-11-15T10:20:07;7.00;99.90
59469;DHT22;45277;52.768;18.262;2022-11-15T10:21:44;7.00;99.90
59469;DHT22;45277;52.768;18.262;2022-11-15T10:23:19;7.00;99.90
59469;DHT22;45277;52.768;18.262;2022-11-15T10:25:14;7.10;99.90
59469;DHT22;45277;52.768;18.262;2022-11-15T10:26:47;7.00;99.90
59469;DHT22;45277;52.768;18.262;2022-11-15T10:28:26;7.10;99.90
59469;DHT22;45277;52.768;18.262;2022-11-15T10:29:58;7.10;99.90
59469;DHT22;45277;52.768;18.262;2022-11-15T10:31:30;7.10;99.90
59469;DHT22;45277;52.768;18.262;2022-11-15T10:34:51;7.00;99.90
59469;DHT22;45277;52.768;18.262;2022-11-15T10:36:23;7.00;99.90
59469;DHT22;45277;52.768;18.262;2022-11-15T10:38:12;6.90;99.90